createdAt,value
2017-09-18T00:00:57.209Z,1002.74
2017-09-18T00:02:10.755Z,1002.71
2017-09-18T00:03:24.344Z,1002.72
2017-09-18T00:04:38.800Z,1002.75
2017-09-18T00:05:52.946Z,1002.77
2017-09-18T00:07:06.677Z,1002.76
2017-09-18T00:08:20.231Z,1002.74
2017-09-18T00:09:34.176Z,1002.73
2017-09-18T00:10:48.612Z,1002.73
2017-09-18T00:12:02.504Z,1002.74
2017-09-18T00:13:16.366Z,1002.75
2017-09-18T00:14:29.882Z,1002.67
2017-09-18T00:15:43.726Z,1002.69
2017-09-18T00:16:57.222Z,1002.69
2017-09-18T00:18:11.724Z,1002.72
2017-09-18T00:19:25.311Z,1002.71
2017-09-18T00:20:39.222Z,1002.7
2017-09-18T00:21:52.817Z,1002.68
2017-09-18T00:23:07.203Z,1002.63
2017-09-18T00:24:21.073Z,1002.7
2017-09-18T00:25:34.983Z,1002.72
2017-09-18T00:26:49.527Z,1002.7
2017-09-18T00:28:03.112Z,1002.69
2017-09-18T00:29:17.772Z,1002.72
2017-09-18T00:30:31.692Z,1002.76
2017-09-18T00:31:45.666Z,1002.74
2017-09-18T00:32:59.191Z,1002.78
2017-09-18T00:34:13.119Z,1002.79
2017-09-18T00:36:55.677Z,1002.81
2017-09-18T00:38:09.212Z,1002.82
2017-09-18T00:39:22.765Z,1002.84
2017-09-18T00:40:36.807Z,1002.83
2017-09-18T00:41:51.504Z,1002.83
2017-09-18T00:43:06.047Z,1002.83
2017-09-18T00:44:19.932Z,1002.85
2017-09-18T00:45:33.487Z,1002.8
2017-09-18T00:46:47.431Z,1002.83
2017-09-18T00:48:00.959Z,1002.79
2017-09-18T00:49:15.255Z,1002.87
2017-09-18T00:50:28.841Z,1002.84
2017-09-18T00:51:42.401Z,1002.85
2017-09-18T00:52:56.188Z,1002.84
2017-09-18T00:54:10.058Z,1002.83
2017-09-18T00:55:23.943Z,1002.86
2017-09-18T00:56:38.129Z,1002.9
2017-09-18T00:57:51.905Z,1002.92
2017-09-18T00:59:05.443Z,1002.9
2017-09-18T01:00:19.029Z,1002.91
2017-09-18T01:01:32.953Z,1002.91
2017-09-18T01:02:46.963Z,1002.95
2017-09-18T01:04:00.876Z,1002.92
2017-09-18T01:05:15.268Z,1002.92
2017-09-18T01:06:28.802Z,1002.92
2017-09-18T01:07:42.648Z,1002.94
2017-09-18T01:08:56.775Z,1002.9
2017-09-18T01:10:10.304Z,1002.89
2017-09-18T01:11:23.841Z,1002.88
2017-09-18T01:12:37.379Z,1002.94
2017-09-18T01:13:51.204Z,1002.92
2017-09-18T01:15:04.792Z,1002.9
2017-09-18T01:16:18.626Z,1002.92
2017-09-18T01:17:32.200Z,1002.92
2017-09-18T01:18:45.823Z,1002.87
2017-09-18T01:20:00.040Z,1002.88
2017-09-18T01:21:13.574Z,1002.86
2017-09-18T01:22:27.092Z,1002.85
2017-09-18T01:23:40.980Z,1002.86
2017-09-18T01:24:54.521Z,1002.87
2017-09-18T01:26:08.375Z,1002.85
2017-09-18T01:27:21.890Z,1002.85
2017-09-18T01:28:35.435Z,1002.82
2017-09-18T01:29:49.133Z,1002.9
2017-09-18T01:31:02.663Z,1002.85
2017-09-18T01:32:16.193Z,1002.79
2017-09-18T01:33:30.051Z,1002.82
2017-09-18T01:34:43.785Z,1002.84
2017-09-18T01:35:57.290Z,1002.87
2017-09-18T01:37:11.133Z,1002.84
2017-09-18T01:38:24.733Z,1002.92
2017-09-18T01:39:38.264Z,1002.88
2017-09-18T01:40:51.813Z,1002.94
2017-09-18T01:42:05.595Z,1002.96
2017-09-18T01:43:19.176Z,1002.93
2017-09-18T01:44:33.004Z,1002.98
2017-09-18T01:45:46.535Z,1002.95
2017-09-18T01:47:00.047Z,1002.97
2017-09-18T01:48:13.600Z,1002.97
2017-09-18T01:49:27.185Z,1002.93
2017-09-18T01:50:41.051Z,1003
2017-09-18T01:51:54.605Z,1002.96
2017-09-18T01:53:08.227Z,1002.97
2017-09-18T01:54:21.768Z,1002.96
2017-09-18T01:55:35.535Z,1002.91
2017-09-18T01:56:49.373Z,1002.9
2017-09-18T01:58:03.121Z,1002.91
2017-09-18T01:59:16.631Z,1002.9
2017-09-18T02:00:30.517Z,1002.93
2017-09-18T02:01:44.078Z,1002.9
2017-09-18T02:02:59.053Z,1002.92
2017-09-18T02:04:12.569Z,1002.91
2017-09-18T02:05:26.330Z,1002.9
2017-09-18T02:06:39.871Z,1002.9
2017-09-18T02:07:53.418Z,1002.91
2017-09-18T02:09:07.246Z,1002.91
2017-09-18T02:10:21.480Z,1002.89
2017-09-18T02:11:36.003Z,1002.91
2017-09-18T02:12:49.589Z,1002.9
2017-09-18T02:14:03.129Z,1002.89
2017-09-18T02:15:17.317Z,1002.88
2017-09-18T02:16:31.322Z,1002.9
2017-09-18T02:17:44.853Z,1002.91
2017-09-18T02:18:58.372Z,1002.91
2017-09-18T02:20:11.874Z,1002.95
2017-09-18T02:21:25.716Z,1002.95
2017-09-18T02:22:39.565Z,1002.95
2017-09-18T02:23:53.561Z,1002.98
2017-09-18T02:25:07.124Z,1002.99
2017-09-18T02:26:20.659Z,1003.03
2017-09-18T02:27:34.497Z,1002.98
2017-09-18T02:28:48.036Z,1002.94
2017-09-18T02:30:01.567Z,1002.98
2017-09-18T02:31:15.631Z,1002.94
2017-09-18T02:32:29.398Z,1002.94
2017-09-18T02:33:43.439Z,1002.97
2017-09-18T02:34:56.994Z,1002.98
2017-09-18T02:36:10.599Z,1002.96
2017-09-18T02:37:24.248Z,1002.96
2017-09-18T02:38:37.810Z,1002.92
2017-09-18T02:39:52.169Z,1002.94
2017-09-18T02:41:06.017Z,1002.98
2017-09-18T02:42:19.553Z,1002.98
2017-09-18T02:43:33.326Z,1002.99
2017-09-18T02:44:47.193Z,1002.98
2017-09-18T02:46:01.017Z,1003.02
2017-09-18T02:47:14.529Z,1003.07
2017-09-18T02:48:28.046Z,1003.05
2017-09-18T02:49:41.543Z,1003.02
2017-09-18T02:50:55.255Z,1003.06
2017-09-18T02:52:09.587Z,1003.06
2017-09-18T02:53:23.391Z,1003.01
2017-09-18T02:54:36.910Z,1002.99
2017-09-18T02:55:50.435Z,1003.03
2017-09-18T02:57:04.049Z,1003.05
2017-09-18T02:58:18.150Z,1003.05
2017-09-18T02:59:31.693Z,1003.06
2017-09-18T03:00:45.281Z,1003.05
2017-09-18T03:01:58.821Z,1003.04
2017-09-18T03:03:12.370Z,1003.05
2017-09-18T03:04:26.210Z,1003.09
2017-09-18T03:05:40.077Z,1003.06
2017-09-18T03:06:53.707Z,1003.08
2017-09-18T03:08:07.564Z,1003.1
2017-09-18T03:09:21.286Z,1003.09
2017-09-18T03:10:36.330Z,1003.08
2017-09-18T03:11:50.228Z,1003.12
2017-09-18T03:13:03.797Z,1003.11
2017-09-18T03:14:17.317Z,1003.12
2017-09-18T03:15:31.066Z,1003.09
2017-09-18T03:16:44.973Z,1003.13
2017-09-18T03:17:58.960Z,1003.12
2017-09-18T03:19:12.538Z,1003.13
2017-09-18T03:20:26.110Z,1003.12
2017-09-18T03:21:39.693Z,1003.18
2017-09-18T03:22:53.519Z,1003.18
2017-09-18T03:24:07.033Z,1003.15
2017-09-18T03:25:20.654Z,1003.15
2017-09-18T03:26:34.180Z,1003.24
2017-09-18T03:27:47.746Z,1003.22
2017-09-18T03:29:01.568Z,1003.25
2017-09-18T03:30:15.485Z,1003.28
2017-09-18T03:31:29.158Z,1003.21
2017-09-18T03:32:42.683Z,1003.22
2017-09-18T03:33:56.265Z,1003.25
2017-09-18T03:35:10.083Z,1003.25
2017-09-18T03:36:23.968Z,1003.22
2017-09-18T03:37:37.809Z,1003.22
2017-09-18T03:38:51.392Z,1003.18
2017-09-18T03:40:04.939Z,1003.25
2017-09-18T03:41:19.783Z,1003.24
2017-09-18T03:42:33.315Z,1003.28
2017-09-18T03:43:46.849Z,1003.28
2017-09-18T03:45:00.557Z,1003.36
2017-09-18T03:46:14.432Z,1003.33
2017-09-18T03:47:28.329Z,1003.36
2017-09-18T03:48:42.036Z,1003.35
2017-09-18T03:49:55.585Z,1003.38
2017-09-18T03:51:09.633Z,1003.41
2017-09-18T03:52:23.173Z,1003.42
2017-09-18T03:53:37.645Z,1003.37
2017-09-18T03:54:51.214Z,1003.41
2017-09-18T03:56:04.962Z,1003.43
2017-09-18T03:57:18.478Z,1003.43
2017-09-18T03:58:32.035Z,1003.42
2017-09-18T03:59:46.330Z,1003.47
2017-09-18T04:00:59.924Z,1003.47
2017-09-18T04:02:14.210Z,1003.45
2017-09-18T04:03:27.758Z,1003.42
2017-09-18T04:04:41.345Z,1003.41
2017-09-18T04:05:55.198Z,1003.46
2017-09-18T04:07:08.829Z,1003.43
2017-09-18T04:08:22.693Z,1003.46
2017-09-18T04:09:36.300Z,1003.49
2017-09-18T04:10:49.906Z,1003.47
2017-09-18T04:12:04.012Z,1003.54
2017-09-18T04:13:17.552Z,1003.53
2017-09-18T04:14:31.273Z,1003.51
2017-09-18T04:15:44.829Z,1003.52
2017-09-18T04:16:58.344Z,1003.52
2017-09-18T04:18:12.509Z,1003.54
2017-09-18T04:19:26.057Z,1003.52
2017-09-18T04:20:39.689Z,1003.56
2017-09-18T04:21:53.214Z,1003.52
2017-09-18T04:23:06.779Z,1003.51
2017-09-18T04:24:20.682Z,1003.52
2017-09-18T04:25:34.215Z,1003.53
2017-09-18T04:26:47.984Z,1003.5
2017-09-18T04:28:02.132Z,1003.52
2017-09-18T04:29:15.765Z,1003.52
2017-09-18T04:30:30.237Z,1003.53
2017-09-18T04:31:43.832Z,1003.54
2017-09-18T04:32:57.547Z,1003.55
2017-09-18T04:34:11.076Z,1003.58
2017-09-18T04:35:24.697Z,1003.59
2017-09-18T04:36:38.632Z,1003.59
2017-09-18T04:37:52.496Z,1003.63
2017-09-18T04:39:06.154Z,1003.61
2017-09-18T04:40:19.741Z,1003.61
2017-09-18T04:41:33.658Z,1003.61
2017-09-18T04:42:47.638Z,1003.63
2017-09-18T04:44:01.160Z,1003.62
2017-09-18T04:45:15.020Z,1003.66
2017-09-18T04:46:28.545Z,1003.72
2017-09-18T04:47:42.309Z,1003.7
2017-09-18T04:48:55.902Z,1003.68
2017-09-18T04:50:09.431Z,1003.67
2017-09-18T04:51:23.055Z,1003.7
2017-09-18T04:52:36.701Z,1003.66
2017-09-18T04:53:50.225Z,1003.67
2017-09-18T04:55:04.597Z,1003.72
2017-09-18T04:56:18.150Z,1003.69
2017-09-18T04:57:31.718Z,1003.73
2017-09-18T04:58:45.296Z,1003.74
2017-09-18T04:59:58.870Z,1003.75
2017-09-18T05:01:13.475Z,1003.74
2017-09-18T05:02:27.361Z,1003.76
2017-09-18T05:03:41.423Z,1003.83
2017-09-18T05:04:54.946Z,1003.81
2017-09-18T05:06:08.640Z,1003.81
2017-09-18T05:07:22.569Z,1003.81
2017-09-18T05:08:36.122Z,1003.84
2017-09-18T05:09:50.411Z,1003.88
2017-09-18T05:11:04.282Z,1003.88
2017-09-18T05:12:17.858Z,1003.85
2017-09-18T05:13:31.706Z,1003.89
2017-09-18T05:14:45.348Z,1003.88
2017-09-18T05:15:59.467Z,1003.88
2017-09-18T05:17:13.034Z,1003.91
2017-09-18T05:18:26.883Z,1003.89
2017-09-18T05:19:41.664Z,1003.91
2017-09-18T05:20:55.265Z,1003.91
2017-09-18T05:22:08.997Z,1003.94
2017-09-18T05:23:22.595Z,1003.96
2017-09-18T05:24:36.396Z,1003.99
2017-09-18T05:25:51.791Z,1004.01
2017-09-18T05:27:05.511Z,1003.99
2017-09-18T05:28:19.211Z,1004.04
2017-09-18T05:29:32.764Z,1003.99
2017-09-18T05:30:46.488Z,1003.97
2017-09-18T05:32:01.037Z,1004.01
2017-09-18T05:33:14.632Z,1004
2017-09-18T05:34:28.185Z,1004.03
2017-09-18T05:35:42.197Z,1003.99
2017-09-18T05:36:55.826Z,1004.07
2017-09-18T05:38:11.137Z,1004.05
2017-09-18T05:39:24.923Z,1004.02
2017-09-18T05:40:38.503Z,1003.99
2017-09-18T05:41:52.197Z,1004.01
2017-09-18T05:43:05.913Z,1003.97
2017-09-18T05:44:19.873Z,1004.01
2017-09-18T05:45:33.713Z,1004
2017-09-18T05:46:47.349Z,1004.01
2017-09-18T05:48:01.092Z,1004.05
2017-09-18T05:49:14.734Z,1004.07
2017-09-18T05:50:28.626Z,1004.05
2017-09-18T05:51:42.480Z,1004.05
2017-09-18T05:52:56.425Z,1004.06
2017-09-18T05:54:10.510Z,1004.04
2017-09-18T05:55:24.278Z,1004.06
2017-09-18T05:56:38.535Z,1004.03
2017-09-18T05:57:52.145Z,1004.07
2017-09-18T05:59:05.837Z,1004.03
2017-09-18T06:00:20.629Z,1004.06
2017-09-18T06:01:34.216Z,1004.09
2017-09-18T06:02:48.102Z,1004.04
2017-09-18T06:04:02.224Z,1004.1
2017-09-18T06:05:15.766Z,1004.08
2017-09-18T06:06:29.281Z,1004.13
2017-09-18T06:07:42.799Z,1004.13
2017-09-18T06:08:56.626Z,1004.11
2017-09-18T06:10:10.563Z,1004.12
2017-09-18T06:11:24.431Z,1004.11
2017-09-18T06:12:38.639Z,1004.07
2017-09-18T06:13:52.234Z,1004.09
2017-09-18T06:15:06.364Z,1004.1
2017-09-18T06:16:19.932Z,1004.1
2017-09-18T06:17:33.461Z,1004.14
2017-09-18T06:18:47.217Z,1004.11
2017-09-18T06:20:00.778Z,1004.13
2017-09-18T06:21:14.646Z,1004.14
2017-09-18T06:22:28.459Z,1004.16
2017-09-18T06:23:42.532Z,1004.13
2017-09-18T06:24:56.444Z,1004.14
2017-09-18T06:26:10.123Z,1004.17
2017-09-18T06:27:24.526Z,1004.19
2017-09-18T06:28:38.099Z,1004.2
2017-09-18T06:29:51.805Z,1004.16
2017-09-18T06:31:05.413Z,1004.19
2017-09-18T06:32:19.043Z,1004.21
2017-09-18T06:33:33.428Z,1004.27
2017-09-18T06:34:47.078Z,1004.26
2017-09-18T06:36:00.671Z,1004.31
2017-09-18T06:37:14.219Z,1004.29
2017-09-18T06:38:27.894Z,1004.29
2017-09-18T06:39:42.131Z,1004.32
2017-09-18T06:40:55.887Z,1004.33
2017-09-18T06:42:09.959Z,1004.33
2017-09-18T06:43:24.273Z,1004.26
2017-09-18T06:44:37.917Z,1004.32
2017-09-18T06:45:51.769Z,1004.38
2017-09-18T06:47:05.324Z,1004.35
2017-09-18T06:48:18.875Z,1004.35
2017-09-18T06:49:32.443Z,1004.35
2017-09-18T06:50:45.962Z,1004.42
2017-09-18T06:52:00.012Z,1004.42
2017-09-18T06:53:13.538Z,1004.41
2017-09-18T06:54:27.114Z,1004.37
2017-09-18T06:55:40.665Z,1004.41
2017-09-18T06:56:54.823Z,1004.36
2017-09-18T06:58:09.074Z,1004.44
2017-09-18T06:59:22.624Z,1004.41
2017-09-18T07:00:36.482Z,1004.41
2017-09-18T07:01:50.061Z,1004.47
2017-09-18T07:03:03.602Z,1004.44
2017-09-18T07:04:17.439Z,1004.47
2017-09-18T07:05:31.215Z,1004.46
2017-09-18T07:06:44.763Z,1004.49
2017-09-18T07:07:58.322Z,1004.45
2017-09-18T07:09:12.210Z,1004.47
2017-09-18T07:10:26.116Z,1004.43
2017-09-18T07:11:39.668Z,1004.51
2017-09-18T07:12:53.252Z,1004.46
2017-09-18T07:14:06.847Z,1004.55
2017-09-18T07:15:20.873Z,1004.55
2017-09-18T07:16:35.276Z,1004.51
2017-09-18T07:17:49.420Z,1004.56
2017-09-18T07:19:02.962Z,1004.55
2017-09-18T07:20:16.503Z,1004.55
2017-09-18T07:21:30.341Z,1004.59
2017-09-18T07:22:44.541Z,1004.59
2017-09-18T07:23:58.144Z,1004.58
2017-09-18T07:25:11.674Z,1004.63
2017-09-18T07:26:25.440Z,1004.58
2017-09-18T07:27:39.820Z,1004.63
2017-09-18T07:28:53.631Z,1004.65
2017-09-18T07:30:07.688Z,1004.66
2017-09-18T07:31:21.372Z,1004.61
2017-09-18T07:32:35.226Z,1004.7
2017-09-18T07:33:49.102Z,1004.7
2017-09-18T07:35:03.103Z,1004.71
2017-09-18T07:36:16.845Z,1004.65
2017-09-18T07:37:30.460Z,1004.65
2017-09-18T07:38:44.576Z,1004.69
2017-09-18T07:39:58.141Z,1004.73
2017-09-18T07:41:12.484Z,1004.68
2017-09-18T07:42:26.062Z,1004.73
2017-09-18T07:43:39.618Z,1004.71
2017-09-18T07:44:53.179Z,1004.72
2017-09-18T07:46:06.782Z,1004.73
2017-09-18T07:47:21.190Z,1004.75
2017-09-18T07:48:34.764Z,1004.77
2017-09-18T07:49:48.313Z,1004.75
2017-09-18T07:51:01.877Z,1004.77
2017-09-18T07:52:15.695Z,1004.75
2017-09-18T07:53:29.542Z,1004.81
2017-09-18T07:54:43.083Z,1004.8
2017-09-18T07:55:56.643Z,1004.8
2017-09-18T07:57:10.421Z,1004.8
2017-09-18T07:58:24.347Z,1004.81
2017-09-18T07:59:38.206Z,1004.81
2017-09-18T08:00:52.093Z,1004.8
2017-09-18T08:02:06.079Z,1004.77
2017-09-18T08:03:19.734Z,1004.81
2017-09-18T08:04:33.233Z,1004.75
2017-09-18T08:05:47.260Z,1004.79
2017-09-18T08:07:01.233Z,1004.81
2017-09-18T08:12:02.515Z,1004.79
2017-09-18T08:13:16.992Z,1004.78
2017-09-18T08:14:31.019Z,1004.82
2017-09-18T08:15:44.654Z,1004.8
2017-09-18T08:16:58.588Z,1004.85
2017-09-18T08:18:13.136Z,1004.9
2017-09-18T08:19:26.936Z,1004.84
2017-09-18T08:20:40.466Z,1004.83
2017-09-18T08:21:54.315Z,1004.82
2017-09-18T08:23:07.906Z,1004.82
2017-09-18T08:24:21.632Z,1004.85
2017-09-18T08:25:35.144Z,1004.82
2017-09-18T08:26:48.667Z,1004.87
2017-09-18T08:28:02.552Z,1004.89
2017-09-18T08:29:16.029Z,1004.86
2017-09-18T08:30:29.873Z,1004.9
2017-09-18T08:31:43.922Z,1004.91
2017-09-18T08:32:57.434Z,1004.89
2017-09-18T08:34:11.133Z,1004.92
2017-09-18T08:35:24.658Z,1004.97
2017-09-18T08:36:38.468Z,1004.96
2017-09-18T08:37:52.001Z,1004.98
2017-09-18T08:39:05.921Z,1004.99
2017-09-18T08:40:19.625Z,1004.98
2017-09-18T08:41:33.155Z,1004.99
2017-09-18T08:42:47.680Z,1005
2017-09-18T08:44:01.178Z,1004.98
2017-09-18T08:45:14.758Z,1005.03
2017-09-18T08:46:28.265Z,1005.01
2017-09-18T08:47:41.863Z,1005
2017-09-18T08:48:55.663Z,1004.98
2017-09-18T08:50:09.224Z,1004.97
2017-09-18T08:51:22.751Z,1004.98
2017-09-18T08:52:36.623Z,1004.98
2017-09-18T08:53:50.132Z,1004.97
2017-09-18T08:55:05.020Z,1004.93
2017-09-18T08:56:18.627Z,1004.99
2017-09-18T08:57:32.544Z,1004.99
2017-09-18T08:58:46.098Z,1005
2017-09-18T08:59:59.856Z,1004.98
2017-09-18T09:01:14.084Z,1005.03
2017-09-18T09:02:27.876Z,1004.98
2017-09-18T09:03:41.469Z,1005.01
2017-09-18T09:04:55.381Z,1004.98
2017-09-18T09:06:08.938Z,1005.03
2017-09-18T09:07:23.119Z,1004.99
2017-09-18T09:08:36.693Z,1005.02
2017-09-18T09:09:50.216Z,1004.98
2017-09-18T09:11:03.848Z,1005.02
2017-09-18T09:12:17.430Z,1005.01
2017-09-18T09:13:31.443Z,1005.02
2017-09-18T09:14:44.969Z,1005.06
2017-09-18T09:15:58.513Z,1005.06
2017-09-18T09:17:12.183Z,1005.06
2017-09-18T09:18:25.824Z,1005.07
2017-09-18T09:19:39.768Z,1005.07
2017-09-18T09:20:53.309Z,1005.03
2017-09-18T09:22:07.806Z,1005.03
2017-09-18T09:23:21.356Z,1005.03
2017-09-18T09:24:35.020Z,1005.09
2017-09-18T09:25:48.852Z,1005.07
2017-09-18T09:27:02.705Z,1005.05
2017-09-18T09:28:16.211Z,1005.07
2017-09-18T09:29:29.801Z,1005.06
2017-09-18T09:30:43.513Z,1005.05
2017-09-18T09:31:57.659Z,1005.08
2017-09-18T09:33:11.580Z,1005.11
2017-09-18T09:34:25.158Z,1005.09
2017-09-18T09:35:39.259Z,1005.16
2017-09-18T09:36:52.790Z,1005.11
2017-09-18T09:38:06.740Z,1005.12
2017-09-18T09:39:20.290Z,1005.13
2017-09-18T09:40:33.869Z,1005.15
2017-09-18T09:41:47.951Z,1005.08
2017-09-18T09:43:01.755Z,1005.15
2017-09-18T09:44:16.331Z,1005.18
2017-09-18T09:45:30.178Z,1005.19
2017-09-18T09:46:43.746Z,1005.19
2017-09-18T09:47:57.324Z,1005.16
2017-09-18T09:49:11.235Z,1005.17
2017-09-18T09:50:25.157Z,1005.16
2017-09-18T09:51:38.714Z,1005.12
2017-09-18T09:52:52.550Z,1005.2
2017-09-18T09:54:06.080Z,1005.13
2017-09-18T09:55:19.812Z,1005.12
2017-09-18T09:56:33.629Z,1005.13
2017-09-18T09:57:47.394Z,1005.18
2017-09-18T09:59:01.245Z,1005.12
2017-09-18T10:00:14.756Z,1005.15
2017-09-18T10:01:28.375Z,1005.18
2017-09-18T10:02:42.528Z,1005.14
2017-09-18T10:03:56.076Z,1005.13
2017-09-18T10:05:09.819Z,1005.14
2017-09-18T10:06:23.752Z,1005.1
2017-09-18T10:07:37.991Z,1005.14
2017-09-18T10:08:52.036Z,1005.16
2017-09-18T10:10:05.928Z,1005.16
2017-09-18T10:11:19.508Z,1005.16
2017-09-18T10:12:33.100Z,1005.17
2017-09-18T10:13:46.896Z,1005.16
2017-09-18T10:15:00.725Z,1005.15
2017-09-18T10:16:14.509Z,1005.12
2017-09-18T10:17:27.995Z,1005.17
2017-09-18T10:18:42.553Z,1005.17
2017-09-18T10:19:56.684Z,1005.18
2017-09-18T10:21:10.769Z,1005.12
2017-09-18T10:22:24.395Z,1005.15
2017-09-18T10:23:37.936Z,1005.17
2017-09-18T10:24:52.036Z,1005.12
2017-09-18T10:26:06.021Z,1005.15
2017-09-18T10:27:20.110Z,1005.09
2017-09-18T10:28:33.621Z,1005.16
2017-09-18T10:29:47.476Z,1005.13
2017-09-18T10:31:01.012Z,1005.12
2017-09-18T10:32:14.509Z,1005.11
2017-09-18T10:33:28.375Z,1005.09
2017-09-18T10:34:42.108Z,1005.09
2017-09-18T10:35:55.788Z,1005.09
2017-09-18T10:37:09.528Z,1005.11
2017-09-18T10:38:23.052Z,1005.07
2017-09-18T10:39:36.895Z,1005.07
2017-09-18T10:40:50.904Z,1005.07
2017-09-18T10:42:04.420Z,1005.04
2017-09-18T10:43:17.971Z,1005.1
2017-09-18T10:44:31.818Z,1005.07
2017-09-18T10:45:45.662Z,1005.1
2017-09-18T10:46:59.205Z,1005.08
2017-09-18T10:48:12.855Z,1005.11
2017-09-18T10:49:26.749Z,1005.06
2017-09-18T10:50:40.648Z,1005.05
2017-09-18T10:51:54.536Z,1005.06
2017-09-18T10:53:08.860Z,1005.04
2017-09-18T10:54:23.181Z,1005.08
2017-09-18T10:55:43.414Z,1005.09
2017-09-18T10:56:57.886Z,1005.08
2017-09-18T10:58:35.413Z,1005.14
2017-09-18T11:00:00.937Z,1005.12
2017-09-18T11:01:31.613Z,1005.18
2017-09-18T11:02:56.173Z,1005.13
2017-09-18T11:04:19.050Z,1005.13
2017-09-18T11:05:45.533Z,1005.15
2017-09-18T11:07:14.236Z,1005.15
2017-09-18T11:08:42.939Z,1005.08
2017-09-18T11:10:10.200Z,1005.02
2017-09-18T11:11:32.141Z,1005.1
2017-09-18T11:12:57.356Z,1005.1
2017-09-18T11:14:24.871Z,1005.11
2017-09-18T11:15:52.417Z,1005.1
2017-09-18T11:17:17.760Z,1005.05
2017-09-18T11:18:43.723Z,1005.05
2017-09-18T11:20:09.433Z,1005.07
2017-09-18T11:21:35.099Z,1005
2017-09-18T11:22:55.154Z,1005.03
2017-09-18T11:24:08.696Z,1005.04
2017-09-18T11:25:22.259Z,1005.01
2017-09-18T11:26:36.101Z,1005.05
2017-09-18T11:27:49.649Z,1005.03
2017-09-18T11:29:03.715Z,1005.06
2017-09-18T11:30:17.228Z,1005.05
2017-09-18T11:31:30.828Z,1005.05
2017-09-18T11:32:45.285Z,1005.03
2017-09-18T11:33:59.334Z,1005.05
2017-09-18T11:35:12.880Z,1005.07
2017-09-18T11:36:26.478Z,1005.03
2017-09-18T11:37:40.134Z,1005.05
2017-09-18T11:38:54.030Z,1005.02
2017-09-18T11:40:08.981Z,1005.02
2017-09-18T11:41:22.639Z,1005.01
2017-09-18T11:42:36.649Z,1004.98
2017-09-18T11:43:50.442Z,1004.98
2017-09-18T11:45:04.942Z,1004.99
2017-09-18T11:46:18.499Z,1005
2017-09-18T11:47:32.615Z,1005
2017-09-18T11:48:46.136Z,1005.02
2017-09-18T11:49:59.685Z,1005.05
2017-09-18T11:51:13.576Z,1005.01
2017-09-18T11:52:27.127Z,1005.03
2017-09-18T11:53:40.973Z,1005.01
2017-09-18T11:54:54.475Z,1004.96
2017-09-18T11:56:07.988Z,1004.93
2017-09-18T11:57:21.813Z,1004.93
2017-09-18T11:58:35.307Z,1004.89
2017-09-18T11:59:48.967Z,1004.88
2017-09-18T12:01:02.466Z,1004.89
2017-09-18T12:02:16.362Z,1004.89
2017-09-18T12:03:30.181Z,1004.84
2017-09-18T12:04:44.026Z,1004.82
2017-09-18T12:05:57.678Z,1004.83
2017-09-18T12:07:11.269Z,1004.79
2017-09-18T12:08:24.799Z,1004.82
2017-09-18T12:09:38.617Z,1004.8
2017-09-18T12:10:52.577Z,1004.74
2017-09-18T12:12:06.061Z,1004.75
2017-09-18T12:13:19.793Z,1004.74
2017-09-18T12:14:33.630Z,1004.75
2017-09-18T12:15:47.796Z,1004.73
2017-09-18T12:17:01.309Z,1004.73
2017-09-18T12:18:15.626Z,1004.72
2017-09-18T12:19:29.216Z,1004.66
2017-09-18T12:20:42.791Z,1004.65
2017-09-18T12:21:58.130Z,1004.69
2017-09-18T12:23:11.689Z,1004.65
2017-09-18T12:24:25.342Z,1004.64
2017-09-18T12:25:43.454Z,1004.62
2017-09-18T12:26:56.970Z,1004.63
2017-09-18T12:28:10.871Z,1004.65
2017-09-18T12:29:25.346Z,1004.61
2017-09-18T12:30:39.092Z,1004.66
2017-09-18T12:31:53.010Z,1004.58
2017-09-18T12:33:06.790Z,1004.56
2017-09-18T12:34:21.084Z,1004.55
2017-09-18T12:35:34.616Z,1004.48
2017-09-18T12:36:48.497Z,1004.48
2017-09-18T12:38:02.049Z,1004.48
2017-09-18T12:39:16.510Z,1004.41
2017-09-18T12:40:30.551Z,1004.36
2017-09-18T12:41:44.072Z,1004.33
2017-09-18T12:42:57.781Z,1004.38
2017-09-18T12:44:12.169Z,1004.4
2017-09-18T12:45:26.358Z,1004.34
2017-09-18T12:46:40.213Z,1004.32
2017-09-18T12:47:53.749Z,1004.31
2017-09-18T12:49:07.708Z,1004.28
2017-09-18T12:50:21.288Z,1004.21
2017-09-18T12:51:35.177Z,1004.29
2017-09-18T12:52:48.998Z,1004.2
2017-09-18T12:54:02.667Z,1004.2
2017-09-18T12:55:16.302Z,1004.17
2017-09-18T12:56:29.807Z,1004.26
2017-09-18T12:57:43.328Z,1004.22
2017-09-18T12:58:56.833Z,1004.17
2017-09-18T13:00:11.034Z,1004.21
2017-09-18T13:01:25.136Z,1004.19
2017-09-18T13:02:39.060Z,1004.2
2017-09-18T13:03:52.606Z,1004.19
2017-09-18T13:05:06.521Z,1004.2
2017-09-18T13:06:20.086Z,1004.21
2017-09-18T13:07:33.576Z,1004.18
2017-09-18T13:08:47.354Z,1004.16
2017-09-18T13:10:01.012Z,1004.16
2017-09-18T13:11:15.031Z,1004.18
2017-09-18T13:12:28.579Z,1004.14
2017-09-18T13:13:42.172Z,1004.13
2017-09-18T13:14:56.237Z,1004.11
2017-09-18T13:16:09.764Z,1004.14
2017-09-18T13:17:23.937Z,1004.08
2017-09-18T13:18:37.640Z,1004.12
2017-09-18T13:19:51.235Z,1004.19
2017-09-18T13:21:05.065Z,1004.09
2017-09-18T13:22:18.572Z,1004.17
2017-09-18T13:23:32.566Z,1004.18
2017-09-18T13:24:46.489Z,1004.14
2017-09-18T13:26:00.221Z,1004.1
2017-09-18T13:27:14.585Z,1004.06
2017-09-18T13:28:28.161Z,1004.07
2017-09-18T13:29:42.358Z,1004.04
2017-09-18T13:30:56.261Z,1004.02
2017-09-18T13:32:09.767Z,1003.98
2017-09-18T13:33:23.517Z,1004
2017-09-18T13:34:37.799Z,1003.99
2017-09-18T13:35:51.878Z,1003.95
2017-09-18T13:37:05.397Z,1003.97
2017-09-18T13:38:18.968Z,1004.01
2017-09-18T13:39:32.526Z,1004.02
2017-09-18T13:40:46.131Z,1004.05
2017-09-18T13:42:00.369Z,1004.06
2017-09-18T13:43:14.049Z,1004.01
2017-09-18T13:44:27.854Z,1004.07
2017-09-18T13:45:41.415Z,1003.98
2017-09-18T13:46:55.091Z,1004.05
2017-09-18T13:48:09.861Z,1004.08
2017-09-18T13:49:23.507Z,1004.08
2017-09-18T13:50:37.072Z,1004.08
2017-09-18T13:51:50.779Z,1004.07
2017-09-18T13:53:04.370Z,1004.15
2017-09-18T13:54:18.266Z,1004.13
2017-09-18T13:55:31.770Z,1004.15
2017-09-18T13:56:45.309Z,1004.07
2017-09-18T13:57:58.954Z,1004.03
2017-09-18T13:59:13.539Z,1004.06
2017-09-18T14:00:27.709Z,1004.11
2017-09-18T14:01:42.256Z,1004.05
2017-09-18T14:02:56.469Z,1004.07
2017-09-18T14:04:10.084Z,1004.04
2017-09-18T14:05:23.809Z,1004.03
2017-09-18T14:06:38.106Z,1004.02
2017-09-18T14:07:51.631Z,1003.97
2017-09-18T14:09:05.235Z,1003.93
2017-09-18T14:10:18.860Z,1004.02
2017-09-18T14:11:33.062Z,1004.05
2017-09-18T14:12:47.000Z,1003.98
2017-09-18T14:14:00.608Z,1004.02
2017-09-18T14:15:14.439Z,1004.02
2017-09-18T14:16:28.635Z,1004.04
2017-09-18T14:17:42.306Z,1004.05
2017-09-18T14:18:56.387Z,1004.05
2017-09-18T14:20:09.934Z,1004.02
2017-09-18T14:21:23.964Z,1004.01
2017-09-18T14:22:37.569Z,1004
2017-09-18T14:23:51.140Z,1004
2017-09-18T14:25:05.059Z,1004.05
2017-09-18T14:26:18.630Z,1004.02
2017-09-18T14:27:32.350Z,1004
2017-09-18T14:28:46.068Z,1003.99
2017-09-18T14:29:59.601Z,1003.96
2017-09-18T14:31:14.215Z,1004.01
2017-09-18T14:32:27.894Z,1003.97
2017-09-18T14:33:47.709Z,1004
2017-09-18T14:35:01.334Z,1003.95
2017-09-18T14:36:15.232Z,1004
2017-09-18T14:37:29.078Z,1003.96
2017-09-18T14:38:42.730Z,1003.95
2017-09-18T14:39:56.308Z,1003.99
2017-09-18T14:41:10.207Z,1003.89
2017-09-18T14:42:23.742Z,1003.97
2017-09-18T14:43:37.920Z,1003.91
2017-09-18T14:44:51.748Z,1003.92
2017-09-18T14:46:05.282Z,1003.93
2017-09-18T14:47:19.937Z,1003.91
2017-09-18T14:48:38.407Z,1003.93
2017-09-18T14:49:52.938Z,1003.92
2017-09-18T14:51:14.505Z,1003.91
2017-09-18T14:52:38.634Z,1003.94
2017-09-18T14:53:59.953Z,1003.94
2017-09-18T14:55:22.166Z,1003.98
2017-09-18T14:56:44.846Z,1003.99
2017-09-18T14:58:08.678Z,1003.99
2017-09-18T14:59:41.436Z,1004.03
2017-09-18T15:01:06.470Z,1003.96
2017-09-18T15:02:36.635Z,1003.96
2017-09-18T15:04:01.411Z,1003.99
2017-09-18T15:05:15.306Z,1004.02
2017-09-18T15:06:29.811Z,1003.99
2017-09-18T15:07:44.034Z,1003.9